Time,TemperatureF,DewpointF,PressureIn,WindDirection,WindDirectionDegrees,WindSpeedMPH,WindSpeedGustMPH,Humidity,HourlyPrecipIn,Conditions,Clouds,dailyrainin,SolarRadiationWatts/m^2,SoftwareType,DateUTC
2013-10-15 00:06:00,51.1,39.0,30.04,NNW,348,0.0,4.0,63,0.00,,,0.00,0,weatherlink.com 1.10,2013-10-15 07:06:00,
2013-10-15 00:21:00,51.0,40.0,30.04,NNW,348,1.0,2.0,65,0.00,,,0.00,0,weatherlink.com 1.10,2013-10-15 07:21:00,
2013-10-15 00:36:00,50.0,40.0,30.04,NNW,348,2.0,3.0,68,0.00,,,0.00,0,weatherlink.com 1.10,2013-10-15 07:36:00,
2013-10-15 00:51:00,50.3,40.0,30.04,NNW,348,0.0,1.0,68,0.00,,,0.00,0,weatherlink.com 1.10,2013-10-15 07:51:00,
2013-10-15 01:06:00,50.3,40.0,30.04,NNW,348,1.0,1.0,68,0.00,,,0.00,0,weatherlink.com 1.10,2013-10-15 08:06:00,
2013-10-15 01:21:00,50.2,40.0,30.04,NNW,348,0.0,0.0,69,0.00,,,0.00,0,weatherlink.com 1.10,2013-10-15 08:21:00,
2013-10-15 01:36:00,49.6,40.0,30.04,NNW,348,0.0,0.0,69,0.00,,,0.00,0,weatherlink.com 1.10,2013-10-15 08:36:00,
2013-10-15 01:51:00,49.1,40.0,30.04,NNW,348,0.0,0.0,70,0.00,,,0.00,0,weatherlink.com 1.10,2013-10-15 08:51:00,
2013-10-15 02:06:00,48.8,40.0,30.04,NNW,348,0.0,1.0,71,0.00,,,0.00,0,weatherlink.com 1.10,2013-10-15 09:06:00,
2013-10-15 02:21:00,48.7,40.0,30.04,NNW,348,0.0,0.0,71,0.00,,,0.00,0,weatherlink.com 1.10,2013-10-15 09:21:00,
2013-10-15 02:36:00,48.7,40.0,30.04,NNW,348,0.0,0.0,72,0.00,,,0.00,0,weatherlink.com 1.10,2013-10-15 09:36:00,
2013-10-15 02:51:00,48.7,40.0,30.04,NNW,348,0.0,0.0,71,0.00,,,0.00,0,weatherlink.com 1.10,2013-10-15 09:51:00,
2013-10-15 03:06:00,48.4,39.0,30.04,NNW,348,0.0,0.0,71,0.00,,,0.00,0,weatherlink.com 1.10,2013-10-15 10:06:00,
2013-10-15 03:21:00,47.6,39.0,30.03,NNW,348,0.0,1.0,72,0.00,,,0.00,0,weatherlink.com 1.10,2013-10-15 10:21:00,
2013-10-15 03:36:00,47.6,39.0,30.03,NNW,348,0.0,0.0,72,0.00,,,0.00,0,weatherlink.com 1.10,2013-10-15 10:36:00,
2013-10-15 03:51:00,47.4,38.0,30.03,NNW,348,0.0,1.0,71,0.00,,,0.00,0,weatherlink.com 1.10,2013-10-15 10:51:00,
2013-10-15 04:06:00,47.1,39.0,30.03,NNW,348,0.0,2.0,74,0.00,,,0.00,0,weatherlink.com 1.10,2013-10-15 11:06:00,
2013-10-15 04:21:00,46.9,38.0,30.03,NNW,348,0.0,2.0,72,0.00,,,0.00,0,weatherlink.com 1.10,2013-10-15 11:21:00,
2013-10-15 04:36:00,46.6,38.0,30.03,NNW,348,0.0,2.0,72,0.00,,,0.00,0,weatherlink.com 1.10,2013-10-15 11:36:00,
2013-10-15 04:51:00,46.9,38.0,30.03,NNW,348,0.0,1.0,71,0.00,,,0.00,0,weatherlink.com 1.10,2013-10-15 11:51:00,
2013-10-15 05:06:00,46.3,38.0,30.03,NNW,348,0.0,2.0,73,0.00,,,0.00,0,weatherlink.com 1.10,2013-10-15 12:06:00,
2013-10-15 05:21:00,46.5,38.0,30.03,NNW,348,0.0,1.0,72,0.00,,,0.00,0,weatherlink.com 1.10,2013-10-15 12:21:00,
2013-10-15 05:36:00,45.9,38.0,30.03,NNW,348,0.0,0.0,75,0.00,,,0.00,0,weatherlink.com 1.10,2013-10-15 12:36:00,
2013-10-15 05:51:00,45.4,38.0,30.03,NNW,348,0.0,0.0,75,0.00,,,0.00,0,weatherlink.com 1.10,2013-10-15 12:51:00,
2013-10-15 06:06:00,45.2,38.0,30.03,NNW,348,0.0,3.0,75,0.00,,,0.00,0,weatherlink.com 1.10,2013-10-15 13:06:00,
2013-10-15 06:21:00,46.0,38.0,30.04,NNW,348,2.0,3.0,74,0.00,,,0.00,0,weatherlink.com 1.10,2013-10-15 13:21:00,
2013-10-15 06:36:00,46.1,38.0,30.04,SW,226,1.0,5.0,73,0.00,,,0.00,0,weatherlink.com 1.10,2013-10-15 13:36:00,
2013-10-15 06:52:00,46.8,38.0,30.03,South,184,2.0,8.0,72,0.00,,,0.00,0,weatherlink.com 1.10,2013-10-15 13:52:00,
2013-10-15 07:07:00,46.5,38.0,30.03,South,177,1.0,7.0,71,0.00,,,0.00,0,weatherlink.com 1.10,2013-10-15 14:07:00,
2013-10-15 07:22:00,46.7,38.0,30.04,SSW,194,5.0,6.0,72,0.00,,,0.00,9,weatherlink.com 1.10,2013-10-15 14:22:00,
2013-10-15 07:37:00,47.3,38.0,30.04,South,181,3.0,6.0,70,0.00,,,0.00,18,weatherlink.com 1.10,2013-10-15 14:37:00,
2013-10-15 07:52:00,48.3,39.0,30.04,SSW,208,4.0,7.0,69,0.00,,,0.00,97,weatherlink.com 1.10,2013-10-15 14:52:00,
2013-10-15 08:07:00,50.0,39.0,30.04,South,182,3.0,7.0,65,0.00,,,0.00,160,weatherlink.com 1.10,2013-10-15 15:07:00,
2013-10-15 08:22:00,51.5,39.0,30.05,South,181,2.0,6.0,63,0.00,,,0.00,220,weatherlink.com 1.10,2013-10-15 15:22:00,
2013-10-15 08:37:00,53.7,39.0,30.05,South,181,1.0,6.0,59,0.00,,,0.00,279,weatherlink.com 1.10,2013-10-15 15:37:00,
2013-10-15 08:52:00,55.9,39.0,30.05,South,186,6.0,7.0,53,0.00,,,0.00,330,weatherlink.com 1.10,2013-10-15 15:52:00,
2013-10-15 09:07:00,57.7,39.0,30.05,SSW,200,5.0,8.0,51,0.00,,,0.00,378,weatherlink.com 1.10,2013-10-15 16:07:00,
2013-10-15 09:22:00,59.1,39.0,30.05,South,173,7.0,11.0,47,0.00,,,0.00,422,weatherlink.com 1.10,2013-10-15 16:22:00,
2013-10-15 09:37:00,61.1,39.0,30.05,SSE,166,2.0,8.0,45,0.00,,,0.00,464,weatherlink.com 1.10,2013-10-15 16:37:00,
2013-10-15 09:52:00,64.4,39.0,30.05,South,176,5.0,7.0,40,0.00,,,0.00,497,weatherlink.com 1.10,2013-10-15 16:52:00,
2013-10-15 10:07:00,65.0,39.0,30.05,SSW,196,2.0,8.0,39,0.00,,,0.00,536,weatherlink.com 1.10,2013-10-15 17:07:00,
2013-10-15 10:22:00,67.6,39.0,30.05,SSW,192,5.0,6.0,35,0.00,,,0.00,575,weatherlink.com 1.10,2013-10-15 17:22:00,
2013-10-15 10:37:00,70.2,35.0,30.05,North,5,2.0,9.0,27,0.00,,,0.00,598,weatherlink.com 1.10,2013-10-15 17:37:00,
2013-10-15 10:53:00,70.6,34.0,30.04,North,5,6.0,12.0,26,0.00,,,0.00,622,weatherlink.com 1.10,2013-10-15 17:53:00,
2013-10-15 11:08:00,71.7,34.0,30.04,NNE,24,5.0,11.0,25,0.00,,,0.00,645,weatherlink.com 1.10,2013-10-15 18:08:00,
2013-10-15 11:23:00,72.5,34.0,30.04,North,360,8.0,9.0,24,0.00,,,0.00,664,weatherlink.com 1.10,2013-10-15 18:23:00,
2013-10-15 11:38:00,72.9,34.0,30.03,NNW,340,9.0,10.0,24,0.00,,,0.00,677,weatherlink.com 1.10,2013-10-15 18:38:00,
2013-10-15 11:53:00,73.5,34.0,30.03,NNW,330,9.0,11.0,24,0.00,,,0.00,691,weatherlink.com 1.10,2013-10-15 18:53:00,
2013-10-15 12:08:00,73.8,34.0,30.03,North,5,6.0,11.0,23,0.00,,,0.00,700,weatherlink.com 1.10,2013-10-15 19:08:00,
2013-10-15 12:23:00,74.6,34.0,30.02,North,5,6.0,13.0,23,0.00,,,0.00,705,weatherlink.com 1.10,2013-10-15 19:23:00,
2013-10-15 12:38:00,75.3,35.0,30.02,North,360,8.0,14.0,23,0.00,,,0.00,700,weatherlink.com 1.10,2013-10-15 19:38:00,
2013-10-15 12:53:00,76.0,34.0,30.01,NNW,347,9.0,11.0,22,0.00,,,0.00,694,weatherlink.com 1.10,2013-10-15 19:53:00,
2013-10-15 13:08:00,76.6,34.0,30.00,WNW,298,6.0,14.0,21,0.00,,,0.00,684,weatherlink.com 1.10,2013-10-15 20:08:00,
2013-10-15 13:23:00,76.1,33.0,30.00,North,5,5.0,12.0,21,0.00,,,0.00,675,weatherlink.com 1.10,2013-10-15 20:23:00,
2013-10-15 13:38:00,77.0,33.0,29.99,North,9,6.0,13.0,20,0.00,,,0.00,657,weatherlink.com 1.10,2013-10-15 20:38:00,
2013-10-15 13:53:00,77.2,33.0,29.98,NNE,17,8.0,13.0,20,0.00,,,0.00,636,weatherlink.com 1.10,2013-10-15 20:53:00,
2013-10-15 14:08:00,77.7,35.0,29.98,North,5,9.0,9.0,21,0.00,,,0.00,610,weatherlink.com 1.10,2013-10-15 21:08:00,
2013-10-15 14:23:00,78.0,34.0,29.98,North,360,8.0,13.0,20,0.00,,,0.00,584,weatherlink.com 1.10,2013-10-15 21:23:00,
2013-10-15 14:38:00,78.4,34.0,29.97,NNW,337,2.0,8.0,20,0.00,,,0.00,545,weatherlink.com 1.10,2013-10-15 21:38:00,
2013-10-15 14:53:00,78.8,34.0,29.97,NNE,24,3.0,11.0,20,0.00,,,0.00,515,weatherlink.com 1.10,2013-10-15 21:53:00,
2013-10-15 15:08:00,79.1,33.0,29.96,North,360,5.0,11.0,19,0.00,,,0.00,480,weatherlink.com 1.10,2013-10-15 22:08:00,
2013-10-15 15:23:00,79.4,34.0,29.96,NNW,347,4.0,9.0,19,0.00,,,0.00,448,weatherlink.com 1.10,2013-10-15 22:23:00,
2013-10-15 15:38:00,79.3,34.0,29.96,North,5,3.0,11.0,19,0.00,,,0.00,404,weatherlink.com 1.10,2013-10-15 22:38:00,
2013-10-15 15:53:00,78.9,33.0,29.96,North,355,4.0,12.0,19,0.00,,,0.00,369,weatherlink.com 1.10,2013-10-15 22:53:00,
2013-10-15 16:08:00,79.1,33.0,29.95,NNW,333,10.0,14.0,19,0.00,,,0.00,318,weatherlink.com 1.10,2013-10-15 23:08:00,
2013-10-15 16:23:00,78.8,32.0,29.95,NNE,33,2.0,10.0,18,0.00,,,0.00,274,weatherlink.com 1.10,2013-10-15 23:23:00,
2013-10-15 16:38:00,78.7,30.0,29.95,North,360,6.0,8.0,17,0.00,,,0.00,211,weatherlink.com 1.10,2013-10-15 23:38:00,
2013-10-15 16:53:00,78.9,32.0,29.95,NE,50,1.0,6.0,18,0.00,,,0.00,139,weatherlink.com 1.10,2013-10-15 23:53:00,
2013-10-15 17:08:00,78.2,33.0,29.95,NNE,23,7.0,9.0,19,0.00,,,0.00,98,weatherlink.com 1.10,2013-10-16 00:08:00,
2013-10-15 17:23:00,77.9,32.0,29.95,ENE,64,1.0,5.0,19,0.00,,,0.00,39,weatherlink.com 1.10,2013-10-16 00:23:00,
2013-10-15 17:38:00,77.3,33.0,29.95,East,94,1.0,5.0,20,0.00,,,0.00,28,weatherlink.com 1.10,2013-10-16 00:38:00,
2013-10-15 17:53:00,76.5,33.0,29.95,East,88,1.0,6.0,20,0.00,,,0.00,23,weatherlink.com 1.10,2013-10-16 00:53:00,
2013-10-15 18:08:00,75.4,34.0,29.95,East,88,0.0,3.0,22,0.00,,,0.00,16,weatherlink.com 1.10,2013-10-16 01:08:00,
2013-10-15 18:23:00,73.6,34.0,29.95,East,88,0.0,3.0,23,0.00,,,0.00,9,weatherlink.com 1.10,2013-10-16 01:23:00,
2013-10-15 18:38:00,71.2,34.0,29.96,East,88,0.0,5.0,25,0.00,,,0.00,0,weatherlink.com 1.10,2013-10-16 01:38:00,
2013-10-15 18:54:00,70.2,34.0,29.96,East,88,0.0,3.0,26,0.00,,,0.00,0,weatherlink.com 1.10,2013-10-16 01:54:00,
2013-10-15 19:09:00,67.0,34.0,29.96,East,88,0.0,1.0,30,0.00,,,0.00,0,weatherlink.com 1.10,2013-10-16 02:09:00,
2013-10-15 19:24:00,65.4,35.0,29.96,East,88,0.0,0.0,33,0.00,,,0.00,0,weatherlink.com 1.10,2013-10-16 02:24:00,
2013-10-15 19:39:00,64.6,36.0,29.96,East,88,0.0,1.0,35,0.00,,,0.00,0,weatherlink.com 1.10,2013-10-16 02:39:00,
2013-10-15 19:54:00,62.9,37.0,29.96,East,88,0.0,1.0,38,0.00,,,0.00,0,weatherlink.com 1.10,2013-10-16 02:54:00,
2013-10-15 20:09:00,61.1,38.0,29.97,East,87,0.0,1.0,42,0.00,,,0.00,0,weatherlink.com 1.10,2013-10-16 03:09:00,
2013-10-15 20:24:00,61.1,38.0,29.97,East,88,0.0,2.0,43,0.00,,,0.00,0,weatherlink.com 1.10,2013-10-16 03:24:00,
2013-10-15 20:39:00,60.5,38.0,29.98,NE,47,0.0,3.0,44,0.00,,,0.00,0,weatherlink.com 1.10,2013-10-16 03:39:00,
2013-10-15 20:54:00,59.8,39.0,29.98,NE,47,0.0,3.0,46,0.00,,,0.00,0,weatherlink.com 1.10,2013-10-16 03:54:00,
2013-10-15 21:09:00,58.6,39.0,29.98,NE,47,0.0,0.0,48,0.00,,,0.00,0,weatherlink.com 1.10,2013-10-16 04:09:00,
2013-10-15 21:24:00,58.3,38.0,29.98,NE,47,0.0,0.0,48,0.00,,,0.00,0,weatherlink.com 1.10,2013-10-16 04:24:00,
2013-10-15 21:39:00,57.6,39.0,29.99,NE,47,0.0,0.0,50,0.00,,,0.00,0,weatherlink.com 1.10,2013-10-16 04:39:00,
2013-10-15 21:54:00,57.1,38.0,29.99,NE,47,0.0,0.0,50,0.00,,,0.00,0,weatherlink.com 1.10,2013-10-16 04:54:00,
2013-10-15 22:09:00,56.5,37.0,29.99,NE,47,0.0,0.0,49,0.00,,,0.00,0,weatherlink.com 1.10,2013-10-16 05:09:00,
2013-10-15 22:24:00,55.7,38.0,29.99,NE,47,0.0,0.0,51,0.00,,,0.00,0,weatherlink.com 1.10,2013-10-16 05:24:00,
2013-10-15 22:39:00,55.6,37.0,29.99,NE,47,0.0,0.0,50,0.00,,,0.00,0,weatherlink.com 1.10,2013-10-16 05:39:00,
2013-10-15 22:54:00,54.8,37.0,30.00,NE,47,0.0,0.0,51,0.00,,,0.00,0,weatherlink.com 1.10,2013-10-16 05:54:00,
2013-10-15 23:09:00,54.4,37.0,30.00,NE,47,0.0,0.0,53,0.00,,,0.00,0,weatherlink.com 1.10,2013-10-16 06:09:00,
2013-10-15 23:24:00,53.3,37.0,30.00,NE,47,0.0,1.0,54,0.00,,,0.00,0,weatherlink.com 1.10,2013-10-16 06:24:00,
2013-10-15 23:39:00,53.7,37.0,30.00,NE,47,0.0,0.0,53,0.00,,,0.00,0,weatherlink.com 1.10,2013-10-16 06:39:00,
2013-10-15 23:54:00,52.8,36.0,30.00,NE,47,0.0,0.0,54,0.00,,,0.00,0,weatherlink.com 1.10,2013-10-16 06:54:00,